sensor_id;sensor_type;location;lat;lon;timestamp;P1;durP1;ratioP1;P2;durP2;ratioP2
25111;SDS011;13092;51.996;4.458;2023-08-06T18:27:28;38.83;;;35.00;;
25111;SDS011;13092;51.996;4.458;2023-08-06T18:29:56;37.35;;;34.10;;
25111;SDS011;13092;51.996;4.458;2023-08-06T18:32:27;36.42;;;33.20;;
25111;SDS011;13092;51.996;4.458;2023-08-06T18:34:55;36.47;;;32.97;;
25111;SDS011;13092;51.996;4.458;2023-08-06T18:37:23;35.67;;;32.58;;
25111;SDS011;13092;51.996;4.458;2023-08-06T18:39:52;37.65;;;34.03;;
25111;SDS011;13092;51.996;4.458;2023-08-06T18:42:29;38.15;;;34.38;;
25111;SDS011;13092;51.996;4.458;2023-08-06T18:44:57;37.17;;;33.75;;
25111;SDS011;13092;51.996;4.458;2023-08-06T18:47:26;37.88;;;34.25;;
25111;SDS011;13092;51.996;4.458;2023-08-06T18:49:54;37.35;;;34.10;;
25111;SDS011;13092;51.996;4.458;2023-08-06T18:52:23;36.67;;;33.50;;
25111;SDS011;13092;51.996;4.458;2023-08-06T18:54:51;34.15;;;31.30;;
25111;SDS011;13092;51.996;4.458;2023-08-06T18:57:20;36.78;;;32.88;;
25111;SDS011;13092;51.996;4.458;2023-08-06T18:59:50;36.20;;;32.72;;
25111;SDS011;13092;51.996;4.458;2023-08-06T19:02:21;32.83;;;30.20;;
25111;SDS011;13092;51.996;4.458;2023-08-06T19:04:57;34.10;;;31.10;;
25111;SDS011;13092;51.996;4.458;2023-08-06T19:07:31;34.42;;;31.75;;
25111;SDS011;13092;51.996;4.458;2023-08-06T19:09:59;35.28;;;31.92;;
25111;SDS011;13092;51.996;4.458;2023-08-06T19:12:33;34.80;;;31.92;;
25111;SDS011;13092;51.996;4.458;2023-08-06T19:15:03;35.70;;;32.53;;
25111;SDS011;13092;51.996;4.458;2023-08-06T19:17:32;34.20;;;31.02;;
25111;SDS011;13092;51.996;4.458;2023-08-06T19:20:00;34.25;;;31.25;;
25111;SDS011;13092;51.996;4.458;2023-08-06T19:22:30;34.97;;;31.85;;
25111;SDS011;13092;51.996;4.458;2023-08-06T19:24:59;35.15;;;31.63;;
25111;SDS011;13092;51.996;4.458;2023-08-06T19:27:30;34.45;;;31.42;;
25111;SDS011;13092;51.996;4.458;2023-08-06T19:29:58;36.20;;;32.85;;
25111;SDS011;13092;51.996;4.458;2023-08-06T19:32:31;34.08;;;31.27;;
25111;SDS011;13092;51.996;4.458;2023-08-06T19:34:59;35.00;;;31.83;;
25111;SDS011;13092;51.996;4.458;2023-08-06T19:37:28;33.55;;;30.75;;
25111;SDS011;13092;51.996;4.458;2023-08-06T19:39:56;33.45;;;30.38;;
25111;SDS011;13092;51.996;4.458;2023-08-06T19:42:25;33.78;;;31.00;;
25111;SDS011;13092;51.996;4.458;2023-08-06T19:44:53;34.78;;;31.73;;
25111;SDS011;13092;51.996;4.458;2023-08-06T19:47:22;34.05;;;31.25;;
25111;SDS011;13092;51.996;4.458;2023-08-06T19:49:51;35.22;;;32.20;;
25111;SDS011;13092;51.996;4.458;2023-08-06T19:52:19;34.83;;;31.92;;
25111;SDS011;13092;51.996;4.458;2023-08-06T19:54:48;36.17;;;33.10;;
25111;SDS011;13092;51.996;4.458;2023-08-06T19:57:16;34.65;;;31.77;;
25111;SDS011;13092;51.996;4.458;2023-08-06T19:59:46;35.20;;;31.92;;
25111;SDS011;13092;51.996;4.458;2023-08-06T20:02:14;34.00;;;31.25;;
25111;SDS011;13092;51.996;4.458;2023-08-06T20:04:42;33.40;;;30.35;;
25111;SDS011;13092;51.996;4.458;2023-08-06T20:07:14;34.88;;;31.95;;
25111;SDS011;13092;51.996;4.458;2023-08-06T20:09:42;36.15;;;32.92;;
25111;SDS011;13092;51.996;4.458;2023-08-06T20:12:13;34.92;;;32.13;;
25111;SDS011;13092;51.996;4.458;2023-08-06T20:14:41;38.45;;;34.58;;
25111;SDS011;13092;51.996;4.458;2023-08-06T20:17:09;37.38;;;34.00;;
25111;SDS011;13092;51.996;4.458;2023-08-06T20:19:37;37.92;;;34.40;;
25111;SDS011;13092;51.996;4.458;2023-08-06T20:22:06;38.47;;;34.92;;
25111;SDS011;13092;51.996;4.458;2023-08-06T20:24:40;39.63;;;35.95;;
25111;SDS011;13092;51.996;4.458;2023-08-06T20:27:08;40.28;;;36.70;;
25111;SDS011;13092;51.996;4.458;2023-08-06T20:29:36;36.28;;;33.10;;
25111;SDS011;13092;51.996;4.458;2023-08-06T20:32:05;35.38;;;32.22;;
25111;SDS011;13092;51.996;4.458;2023-08-06T20:34:33;37.45;;;34.13;;
25111;SDS011;13092;51.996;4.458;2023-08-06T20:37:02;37.60;;;33.85;;
25111;SDS011;13092;51.996;4.458;2023-08-06T20:39:30;36.92;;;33.38;;
25111;SDS011;13092;51.996;4.458;2023-08-06T20:42:00;36.67;;;32.90;;
25111;SDS011;13092;51.996;4.458;2023-08-06T20:44:28;37.80;;;34.63;;
25111;SDS011;13092;51.996;4.458;2023-08-06T20:47:01;37.83;;;34.60;;
25111;SDS011;13092;51.996;4.458;2023-08-06T20:49:29;37.63;;;34.33;;
25111;SDS011;13092;51.996;4.458;2023-08-06T20:51:57;37.72;;;34.20;;
25111;SDS011;13092;51.996;4.458;2023-08-06T20:54:25;35.72;;;32.58;;
25111;SDS011;13092;51.996;4.458;2023-08-06T20:56:53;33.38;;;30.55;;
25111;SDS011;13092;51.996;4.458;2023-08-06T20:59:23;33.38;;;30.27;;
25111;SDS011;13092;51.996;4.458;2023-08-06T21:01:51;33.85;;;30.83;;
25111;SDS011;13092;51.996;4.458;2023-08-06T21:04:22;34.83;;;31.42;;
25111;SDS011;13092;51.996;4.458;2023-08-06T21:06:51;34.90;;;31.73;;
25111;SDS011;13092;51.996;4.458;2023-08-06T21:09:19;34.67;;;31.52;;
25111;SDS011;13092;51.996;4.458;2023-08-06T21:11:47;35.05;;;31.73;;
25111;SDS011;13092;51.996;4.458;2023-08-06T21:14:15;34.17;;;31.05;;
25111;SDS011;13092;51.996;4.458;2023-08-06T21:16:45;35.00;;;31.65;;
25111;SDS011;13092;51.996;4.458;2023-08-06T21:19:13;32.75;;;30.05;;
25111;SDS011;13092;51.996;4.458;2023-08-06T21:21:41;33.97;;;31.00;;
25111;SDS011;13092;51.996;4.458;2023-08-06T21:24:09;33.55;;;30.75;;
25111;SDS011;13092;51.996;4.458;2023-08-06T21:26:37;32.97;;;30.00;;
25111;SDS011;13092;51.996;4.458;2023-08-06T21:29:05;33.17;;;30.48;;
25111;SDS011;13092;51.996;4.458;2023-08-06T21:31:34;33.58;;;30.60;;
25111;SDS011;13092;51.996;4.458;2023-08-06T21:34:04;33.97;;;30.92;;
25111;SDS011;13092;51.996;4.458;2023-08-06T21:36:32;34.38;;;31.38;;
25111;SDS011;13092;51.996;4.458;2023-08-06T21:39:03;35.55;;;32.10;;
25111;SDS011;13092;51.996;4.458;2023-08-06T21:41:31;35.78;;;32.50;;
25111;SDS011;13092;51.996;4.458;2023-08-06T21:43:59;36.70;;;33.25;;
25111;SDS011;13092;51.996;4.458;2023-08-06T21:46:31;36.28;;;32.83;;
25111;SDS011;13092;51.996;4.458;2023-08-06T21:49:03;35.80;;;32.40;;
25111;SDS011;13092;51.996;4.458;2023-08-06T21:51:32;37.20;;;33.65;;
25111;SDS011;13092;51.996;4.458;2023-08-06T21:54:00;36.15;;;32.83;;
25111;SDS011;13092;51.996;4.458;2023-08-06T21:56:29;37.65;;;34.08;;
25111;SDS011;13092;51.996;4.458;2023-08-06T21:58:57;35.15;;;31.80;;
25111;SDS011;13092;51.996;4.458;2023-08-06T22:01:31;34.45;;;31.25;;
25111;SDS011;13092;51.996;4.458;2023-08-06T22:03:59;35.58;;;32.17;;
25111;SDS011;13092;51.996;4.458;2023-08-06T22:06:28;37.42;;;33.72;;
25111;SDS011;13092;51.996;4.458;2023-08-06T22:08:57;36.80;;;33.30;;
25111;SDS011;13092;51.996;4.458;2023-08-06T22:11:25;37.75;;;33.97;;
25111;SDS011;13092;51.996;4.458;2023-08-06T22:13:55;36.60;;;33.42;;
25111;SDS011;13092;51.996;4.458;2023-08-06T22:16:24;36.53;;;32.95;;
25111;SDS011;13092;51.996;4.458;2023-08-06T22:18:52;35.67;;;32.33;;
25111;SDS011;13092;51.996;4.458;2023-08-06T22:21:21;36.83;;;33.30;;
25111;SDS011;13092;51.996;4.458;2023-08-06T22:23:50;36.92;;;33.53;;
25111;SDS011;13092;51.996;4.458;2023-08-06T22:26:18;36.88;;;33.50;;
25111;SDS011;13092;51.996;4.458;2023-08-06T22:28:55;35.88;;;32.42;;
25111;SDS011;13092;51.996;4.458;2023-08-06T22:31:27;35.25;;;32.10;;
25111;SDS011;13092;51.996;4.458;2023-08-06T22:33:55;35.80;;;32.47;;
25111;SDS011;13092;51.996;4.458;2023-08-06T22:36:24;36.45;;;32.63;;
25111;SDS011;13092;51.996;4.458;2023-08-06T22:38:54;36.78;;;33.13;;
25111;SDS011;13092;51.996;4.458;2023-08-06T22:41:22;36.47;;;33.03;;
25111;SDS011;13092;51.996;4.458;2023-08-06T22:43:51;37.45;;;34.10;;
25111;SDS011;13092;51.996;4.458;2023-08-06T22:46:19;38.10;;;34.35;;
25111;SDS011;13092;51.996;4.458;2023-08-06T22:48:48;37.95;;;34.35;;
25111;SDS011;13092;51.996;4.458;2023-08-06T22:51:16;37.30;;;33.92;;
25111;SDS011;13092;51.996;4.458;2023-08-06T22:53:44;36.22;;;33.38;;
25111;SDS011;13092;51.996;4.458;2023-08-06T22:56:14;36.95;;;33.53;;
25111;SDS011;13092;51.996;4.458;2023-08-06T22:58:42;35.38;;;32.35;;
25111;SDS011;13092;51.996;4.458;2023-08-06T23:01:12;35.88;;;32.25;;
25111;SDS011;13092;51.996;4.458;2023-08-06T23:03:40;35.33;;;32.10;;
25111;SDS011;13092;51.996;4.458;2023-08-06T23:06:09;33.28;;;30.45;;
25111;SDS011;13092;51.996;4.458;2023-08-06T23:08:37;33.75;;;30.23;;
25111;SDS011;13092;51.996;4.458;2023-08-06T23:11:05;34.45;;;31.45;;
25111;SDS011;13092;51.996;4.458;2023-08-06T23:13:38;33.78;;;30.77;;
25111;SDS011;13092;51.996;4.458;2023-08-06T23:16:07;35.13;;;31.95;;
25111;SDS011;13092;51.996;4.458;2023-08-06T23:18:37;34.78;;;31.63;;
25111;SDS011;13092;51.996;4.458;2023-08-06T23:21:09;35.78;;;32.60;;
25111;SDS011;13092;51.996;4.458;2023-08-06T23:23:37;34.72;;;31.67;;
25111;SDS011;13092;51.996;4.458;2023-08-06T23:26:05;35.38;;;32.47;;
25111;SDS011;13092;51.996;4.458;2023-08-06T23:28:34;36.47;;;32.95;;
25111;SDS011;13092;51.996;4.458;2023-08-06T23:31:06;36.42;;;32.97;;
25111;SDS011;13092;51.996;4.458;2023-08-06T23:33:34;36.67;;;33.45;;
25111;SDS011;13092;51.996;4.458;2023-08-06T23:36:05;34.58;;;31.55;;
25111;SDS011;13092;51.996;4.458;2023-08-06T23:38:37;35.33;;;32.20;;
25111;SDS011;13092;51.996;4.458;2023-08-06T23:41:05;35.13;;;32.20;;
25111;SDS011;13092;51.996;4.458;2023-08-06T23:43:33;35.60;;;32.25;;
25111;SDS011;13092;51.996;4.458;2023-08-06T23:46:01;33.53;;;31.02;;
25111;SDS011;13092;51.996;4.458;2023-08-06T23:48:31;34.47;;;31.42;;
25111;SDS011;13092;51.996;4.458;2023-08-06T23:50:59;35.17;;;31.88;;
25111;SDS011;13092;51.996;4.458;2023-08-06T23:53:27;34.10;;;31.10;;
25111;SDS011;13092;51.996;4.458;2023-08-06T23:55:55;34.40;;;31.13;;
25111;SDS011;13092;51.996;4.458;2023-08-06T23:58:24;34.78;;;31.40;;
